Buchanan, North Dakota
Current Conditions -  °F | °C
As of 5:56 PM on Wednesday 28 Jan 2015 (Local Time) from KJMS Reporting Station
Overcast Overcast  
Wind Chill: 20°   Ceiling: 900
Heat Index: 32°   Visibility: 10mi
Dew Point: 29°   Wind: 20mph
Humidity: 88%   Direction: 340°NNW
Pressure: 29.91"   Gusts: NA
Location:  47.06°N, 98.83°W
Report Text: KJMS 282356Z AUTO 34017KT 10SM OVC009 00/M02 A2991 RMK AO2 PK WND 34028/2320 SLP148 T00001017 10006 20000 53044
Loading
Personal Weather Stations






























Interactive Weather Map New forecast layout! Learn more

10-Day Weather Forecast

Advertisements
Track Severe Weather on mobile